Time;durP1;ratioP1;P1;durP2;ratioP2;P2;SDS_P1;SDS_P2;PMS_P1;PMS_P2;Temp;Humidity;BMP_temperature;BMP_pressure;BME280_temperature;BME280_humidity;BME280_pressure;Samples;Min_cycle;Max_cycle;Signal;HPM_P1;HPM_P2
2022/07/31 00:01:11;;;;;;;4.43;3.40;;;22.30;99.40;;;;;;4988157;28;20210;-68
2022/07/31 00:03:38;;;;;;;5.47;3.17;;;22.30;99.60;;;;;;4988054;28;20580;-67
2022/07/31 00:06:08;;;;;;;3.47;3.17;;;22.30;99.50;;;;;;4990622;28;20209;-68
2022/07/31 00:08:36;;;;;;;2.90;2.72;;;22.20;99.40;;;;;;5007921;28;20292;-67
2022/07/31 00:11:10;;;;;;;3.22;3.03;;;22.30;99.50;;;;;;5001964;28;20206;-67
2022/07/31 00:13:37;;;;;;;3.10;2.80;;;22.20;99.50;;;;;;4992227;28;20222;-66
2022/07/31 00:16:07;;;;;;;7.40;3.20;;;22.20;99.60;;;;;;4991760;28;20206;-67
2022/07/31 00:18:34;;;;;;;5.13;2.88;;;22.10;99.80;;;;;;4991774;28;20240;-68
2022/07/31 00:21:01;;;;;;;5.13;3.00;;;22.10;99.90;;;;;;4991984;28;20202;-68
2022/07/31 00:23:28;;;;;;;5.25;3.22;;;22.00;99.90;;;;;;4997972;28;20305;-68
2022/07/31 00:25:57;;;;;;;2.95;2.75;;;22.00;99.80;;;;;;5011185;28;20209;-67
2022/07/31 00:28:24;;;;;;;4.75;2.70;;;22.00;99.80;;;;;;5010893;28;20209;-68
2022/07/31 00:30:51;;;;;;;4.63;3.28;;;21.90;99.80;;;;;;5011038;28;20206;-68
2022/07/31 00:33:18;;;;;;;5.15;3.25;;;21.90;99.90;;;;;;4994167;28;20649;-68
2022/07/31 00:35:44;;;;;;;5.70;2.92;;;21.80;99.90;;;;;;4991460;28;20210;-68
2022/07/31 00:38:11;;;;;;;3.42;2.90;;;21.80;99.90;;;;;;4991033;28;20230;-68
2022/07/31 00:40:45;;;;;;;3.28;3.08;;;21.80;99.90;;;;;;4991117;28;20214;-68
2022/07/31 00:43:15;;;;;;;3.80;3.50;;;21.80;99.90;;;;;;4990880;28;20693;-68
2022/07/31 00:45:42;;;;;;;4.07;3.55;;;21.70;99.90;;;;;;4991905;28;20212;-67
2022/07/31 00:48:08;;;;;;;3.47;3.28;;;21.70;99.90;;;;;;4991320;28;20212;-68
2022/07/31 00:50:36;;;;;;;4.22;3.35;;;21.70;99.90;;;;;;4990875;28;20213;-68
2022/07/31 00:53:03;;;;;;;4.13;3.83;;;21.70;99.90;;;;;;4992477;28;20209;-67
2022/07/31 00:55:31;;;;;;;4.63;3.50;;;21.70;99.90;;;;;;4991256;28;20268;-67
2022/07/31 00:57:58;;;;;;;4.25;3.65;;;21.70;99.90;;;;;;4990898;28;20256;-67
2022/07/31 01:00:26;;;;;;;5.57;3.42;;;21.60;99.90;;;;;;4999035;28;20235;-67
2022/07/31 01:02:53;;;;;;;3.60;3.30;;;21.60;99.90;;;;;;5010425;28;20623;-68
2022/07/31 01:05:20;;;;;;;5.68;3.78;;;21.50;99.90;;;;;;5010424;28;20209;-68
2022/07/31 01:07:48;;;;;;;3.22;3.03;;;21.50;99.90;;;;;;5010490;28;20220;-68
2022/07/31 01:10:21;;;;;;;3.42;3.13;;;21.50;99.90;;;;;;5010272;28;20344;-67
2022/07/31 01:12:56;;;;;;;3.13;2.90;;;21.50;99.90;;;;;;5010113;28;20209;-67
2022/07/31 01:15:24;;;;;;;4.20;3.30;;;21.50;99.90;;;;;;5010367;28;20200;-67
2022/07/31 01:17:54;;;;;;;3.67;3.40;;;21.40;99.90;;;;;;5010408;28;20241;-67
2022/07/31 01:20:21;;;;;;;3.30;3.10;;;21.20;99.90;;;;;;5010221;28;20313;-67
2022/07/31 01:23:26;;;;;;;7.07;3.20;;;21.30;99.90;;;;;;5010180;28;20209;-67
2022/07/31 01:26:02;;;;;;;3.60;3.20;;;21.20;99.90;;;;;;5003322;28;20209;-67
2022/07/31 01:28:43;;;;;;;3.23;3.00;;;21.00;99.90;;;;;;5008906;28;20783;-67
2022/07/31 01:31:14;;;;;;;4.05;3.65;;;20.90;99.90;;;;;;5009854;28;20201;-67
2022/07/31 01:33:49;;;;;;;3.10;2.90;;;20.80;99.90;;;;;;5010066;28;20206;-67
2022/07/31 01:36:20;;;;;;;3.40;3.10;;;20.60;99.90;;;;;;5010149;28;20197;-67
2022/07/31 01:38:51;;;;;;;4.23;3.10;;;20.60;99.90;;;;;;5009545;28;20696;-67
2022/07/31 01:41:24;;;;;;;3.45;3.08;;;20.70;99.90;;;;;;5009890;28;20204;-68
2022/07/31 01:43:56;;;;;;;4.03;3.37;;;20.70;99.90;;;;;;5009794;28;20232;-67
2022/07/31 01:46:24;;;;;;;3.40;3.10;;;20.70;99.90;;;;;;5009893;28;20194;-67
2022/07/31 01:48:55;;;;;;;3.30;3.00;;;20.70;99.90;;;;;;5009556;28;20205;-67
2022/07/31 01:51:22;;;;;;;4.20;3.73;;;20.80;99.90;;;;;;5009737;28;20213;-68
2022/07/31 01:53:51;;;;;;;6.07;3.60;;;20.70;99.90;;;;;;5008711;28;20256;-67
2022/07/31 01:56:19;;;;;;;4.05;3.65;;;20.70;99.90;;;;;;5009103;28;20283;-68
2022/07/31 01:58:48;;;;;;;5.83;3.10;;;20.80;99.90;;;;;;5009535;28;20541;-68
2022/07/31 02:01:17;;;;;;;3.57;3.27;;;20.70;99.90;;;;;;5009403;28;20210;-67
2022/07/31 02:03:46;;;;;;;3.27;3.07;;;20.70;99.90;;;;;;5009448;28;20212;-67
2022/07/31 02:06:15;;;;;;;5.43;3.42;;;20.60;99.90;;;;;;5009545;28;20209;-67
2022/07/31 02:08:44;;;;;;;4.43;3.40;;;20.50;99.90;;;;;;5009295;28;20677;-67
2022/07/31 02:11:12;;;;;;;3.90;3.27;;;20.30;99.90;;;;;;5009077;28;20209;-67
2022/07/31 02:13:40;;;;;;;4.83;3.30;;;20.20;99.90;;;;;;5009093;28;20206;-67
2022/07/31 02:16:07;;;;;;;6.80;3.47;;;20.20;99.90;;;;;;5009309;28;20213;-67
2022/07/31 02:18:36;;;;;;;4.13;3.40;;;20.30;99.90;;;;;;5007679;28;20602;-68
2022/07/31 02:21:09;;;;;;;4.90;3.30;;;20.20;99.90;;;;;;5008960;28;20206;-68
2022/07/31 02:23:36;;;;;;;3.50;3.20;;;20.20;99.90;;;;;;5008863;28;20570;-68
2022/07/31 02:26:07;;;;;;;4.30;3.60;;;19.80;99.90;;;;;;5008739;28;20219;-67
2022/07/31 02:28:36;;;;;;;6.43;3.63;;;19.60;99.90;;;;;;5009100;28;20285;-68
2022/07/31 02:31:10;;;;;;;4.43;3.60;;;19.50;99.90;;;;;;5009209;28;20216;-68
2022/07/31 02:33:40;;;;;;;3.90;3.27;;;19.60;99.90;;;;;;5008334;28;20281;-68
2022/07/31 02:36:08;;;;;;;5.23;3.60;;;19.60;99.90;;;;;;5008271;28;20233;-68
2022/07/31 02:38:36;;;;;;;5.70;3.60;;;19.70;99.90;;;;;;5008738;28;20608;-68
2022/07/31 02:41:10;;;;;;;4.57;3.20;;;19.80;99.90;;;;;;5008247;28;20233;-68
2022/07/31 02:43:38;;;;;;;3.60;3.40;;;19.90;99.90;;;;;;5008423;28;20812;-68
2022/07/31 02:46:09;;;;;;;3.40;3.03;;;20.00;99.90;;;;;;5007991;28;20680;-68
2022/07/31 02:48:38;;;;;;;5.07;3.57;;;19.90;99.90;;;;;;5007792;28;20213;-68
2022/07/31 02:51:08;;;;;;;5.60;3.40;;;20.00;99.90;;;;;;5008421;28;20723;-68
2022/07/31 02:53:36;;;;;;;4.00;3.40;;;19.90;99.90;;;;;;5008275;28;20303;-68
2022/07/31 02:56:08;;;;;;;4.77;3.73;;;19.90;99.90;;;;;;5007842;28;20688;-68
2022/07/31 02:58:35;;;;;;;3.50;3.30;;;19.90;99.90;;;;;;5008266;28;20304;-68
2022/07/31 03:01:08;;;;;;;3.73;3.43;;;19.80;99.90;;;;;;5008416;28;20216;-68
2022/07/31 03:03:35;;;;;;;4.13;3.07;;;19.80;99.90;;;;;;5008368;28;20204;-68
2022/07/31 03:06:09;;;;;;;5.10;3.63;;;19.80;99.90;;;;;;5008349;28;20209;-68
2022/07/31 03:08:36;;;;;;;4.77;3.67;;;19.80;99.90;;;;;;5008395;28;20291;-68
2022/07/31 03:11:09;;;;;;;4.17;3.40;;;19.80;99.90;;;;;;5007992;28;20300;-68
2022/07/31 03:13:37;;;;;;;3.87;3.53;;;19.80;99.90;;;;;;5008046;28;20194;-68
2022/07/31 03:16:10;;;;;;;3.67;3.37;;;19.70;99.90;;;;;;5008071;28;20216;-68
2022/07/31 03:18:39;;;;;;;3.53;3.30;;;19.70;99.90;;;;;;5006150;28;20210;-68
2022/07/31 03:21:11;;;;;;;4.03;3.63;;;19.70;99.90;;;;;;5007767;28;20206;-68
2022/07/31 03:23:39;;;;;;;4.27;3.70;;;19.70;99.90;;;;;;5008094;28;20296;-68
2022/07/31 03:26:09;;;;;;;4.00;3.40;;;19.70;99.90;;;;;;5007965;28;20209;-68
2022/07/31 03:28:35;;;;;;;4.07;3.70;;;19.70;99.90;;;;;;5007880;28;20232;-68
2022/07/31 03:31:07;;;;;;;4.20;3.50;;;19.70;99.90;;;;;;5007956;28;20566;-68
2022/07/31 03:33:34;;;;;;;4.20;3.47;;;19.70;99.90;;;;;;5008067;28;20202;-68
2022/07/31 03:36:01;;;;;;;4.13;3.83;;;19.60;99.90;;;;;;4988908;28;20205;-68
2022/07/31 03:38:29;;;;;;;3.80;3.50;;;19.60;99.90;;;;;;4988139;28;20230;-71
2022/07/31 03:40:56;;;;;;;3.60;3.30;;;19.60;99.90;;;;;;4988180;28;20214;-71
2022/07/31 03:43:24;;;;;;;6.80;3.60;;;19.70;99.90;;;;;;4988350;28;20248;-71
2022/07/31 03:45:52;;;;;;;6.73;3.70;;;19.60;99.90;;;;;;4989837;28;20560;-71
2022/07/31 03:48:19;;;;;;;3.80;3.40;;;19.50;99.90;;;;;;4992276;28;20217;-71
2022/07/31 03:50:46;;;;;;;3.83;3.53;;;19.50;99.90;;;;;;4992431;28;20678;-70
2022/07/31 03:53:14;;;;;;;4.37;3.53;;;19.40;99.90;;;;;;5010335;28;20212;-71
2022/07/31 03:55:42;;;;;;;3.70;3.47;;;19.40;99.90;;;;;;5011677;28;20670;-70
2022/07/31 03:58:10;;;;;;;9.07;3.83;;;19.40;99.90;;;;;;5010012;28;20237;-70
2022/07/31 04:00:37;;;;;;;5.77;4.13;;;19.40;99.90;;;;;;5010294;28;20217;-70
2022/07/31 04:03:07;;;;;;;3.80;3.50;;;19.30;99.90;;;;;;5010109;28;20736;-71
2022/07/31 04:05:34;;;;;;;3.73;3.43;;;19.20;99.90;;;;;;5010506;28;20213;-71
2022/07/31 04:08:01;;;;;;;4.00;3.70;;;19.20;99.90;;;;;;5009566;28;20209;-71
2022/07/31 04:10:28;;;;;;;3.80;3.60;;;19.20;99.90;;;;;;5010082;28;20259;-70
2022/07/31 04:12:56;;;;;;;3.53;3.33;;;19.30;99.90;;;;;;5010045;28;20760;-70
2022/07/31 04:15:24;;;;;;;4.47;4.00;;;19.30;99.90;;;;;;5010014;28;20324;-71
2022/07/31 04:17:50;;;;;;;4.50;4.10;;;19.30;99.90;;;;;;5009922;28;20219;-70
2022/07/31 04:20:18;;;;;;;4.00;3.60;;;19.40;99.90;;;;;;5002674;28;20236;-70
2022/07/31 04:22:45;;;;;;;4.33;3.87;;;19.30;99.90;;;;;;4991514;28;20210;-70
2022/07/31 04:25:12;;;;;;;5.27;3.70;;;19.30;99.90;;;;;;5009111;28;20264;-70
2022/07/31 04:27:39;;;;;;;3.80;3.50;;;19.40;99.90;;;;;;5010037;28;20205;-70
2022/07/31 04:30:08;;;;;;;4.03;3.70;;;19.40;99.90;;;;;;5009793;28;20650;-70
2022/07/31 04:32:36;;;;;;;5.40;4.23;;;19.40;99.90;;;;;;5009931;28;20202;-70
2022/07/31 04:35:03;;;;;;;7.87;4.33;;;19.40;99.90;;;;;;5009718;28;20235;-70
2022/07/31 04:37:30;;;;;;;5.27;4.20;;;19.40;99.90;;;;;;5009454;28;20201;-70
2022/07/31 04:39:57;;;;;;;5.90;4.00;;;19.40;99.90;;;;;;5009663;28;20240;-70
2022/07/31 04:42:24;;;;;;;5.37;4.20;;;19.50;99.90;;;;;;5005848;28;20971;-70
2022/07/31 04:44:50;;;;;;;4.17;3.87;;;19.50;99.90;;;;;;4990089;28;20577;-70
2022/07/31 04:47:19;;;;;;;5.80;4.30;;;19.50;99.90;;;;;;4989987;28;20228;-71
2022/07/31 04:49:46;;;;;;;4.13;3.87;;;19.50;99.90;;;;;;4990178;28;20216;-70
2022/07/31 04:52:13;;;;;;;4.30;4.00;;;19.50;99.90;;;;;;4989884;28;20228;-70
2022/07/31 04:54:40;;;;;;;4.37;4.07;;;19.40;99.90;;;;;;5006512;28;20209;-70
2022/07/31 04:57:06;;;;;;;6.07;4.40;;;19.10;99.90;;;;;;4971239;28;1101746;-70
2022/07/31 04:59:33;;;;;;;5.10;4.57;;;18.90;99.90;;;;;;5010476;28;20228;-71
2022/07/31 05:02:00;;;;;;;4.80;4.30;;;18.80;99.90;;;;;;5010104;28;20202;-71
2022/07/31 05:04:28;;;;;;;4.23;3.90;;;18.90;99.90;;;;;;5010296;28;20492;-70
2022/07/31 05:06:55;;;;;;;5.10;4.63;;;19.00;99.90;;;;;;5010540;28;20617;-70
2022/07/31 05:09:23;;;;;;;6.63;4.80;;;19.10;99.90;;;;;;5010355;28;20389;-70
2022/07/31 05:11:51;;;;;;;5.03;4.50;;;19.00;99.90;;;;;;4995755;28;20202;-70
2022/07/31 05:14:19;;;;;;;4.97;4.57;;;19.00;99.90;;;;;;4990774;28;20210;-70
2022/07/31 05:16:46;;;;;;;5.30;4.90;;;19.20;99.90;;;;;;4994275;28;20297;-71
2022/07/31 05:19:13;;;;;;;5.37;4.77;;;19.30;99.90;;;;;;5009970;28;20233;-71
2022/07/31 05:21:41;;;;;;;5.23;4.93;;;19.30;99.90;;;;;;4990787;28;20206;-71
2022/07/31 05:24:08;;;;;;;5.27;4.17;;;19.40;99.90;;;;;;5001825;28;20726;-68
2022/07/31 05:26:35;;;;;;;5.00;4.53;;;19.50;99.90;;;;;;5009991;28;20305;-68
2022/07/31 05:29:02;;;;;;;5.40;4.90;;;19.50;99.90;;;;;;5009600;28;20983;-68
2022/07/31 05:31:29;;;;;;;4.57;4.23;;;19.40;99.90;;;;;;5010081;28;20213;-68
2022/07/31 05:33:57;;;;;;;5.03;4.43;;;19.30;99.90;;;;;;5007766;28;20209;-68
2022/07/31 05:36:25;;;;;;;5.30;5.00;;;19.50;99.90;;;;;;4990415;28;20209;-68
2022/07/31 05:38:54;;;;;;;4.93;4.47;;;19.40;99.90;;;;;;4990498;28;20217;-68
2022/07/31 05:41:20;;;;;;;5.57;4.73;;;19.50;99.90;;;;;;4990444;28;20209;-68
2022/07/31 05:43:47;;;;;;;5.27;4.87;;;19.40;99.90;;;;;;4990440;28;20248;-68
2022/07/31 05:46:16;;;;;;;5.33;4.83;;;19.40;99.90;;;;;;4990547;28;20206;-68
2022/07/31 05:48:43;;;;;;;5.03;4.60;;;19.50;99.90;;;;;;4990423;28;20237;-67
2022/07/31 05:51:11;;;;;;;4.93;4.53;;;19.60;99.90;;;;;;4990840;28;20210;-68
2022/07/31 05:53:38;;;;;;;4.93;4.57;;;19.50;99.90;;;;;;4998277;28;20202;-68
2022/07/31 05:56:10;;;;;;;5.60;4.87;;;19.60;99.90;;;;;;5009310;28;20249;-68
2022/07/31 05:58:36;;;;;;;4.73;4.33;;;19.70;99.90;;;;;;5009843;28;20204;-68
2022/07/31 06:01:10;;;;;;;4.93;4.53;;;19.80;99.90;;;;;;5009652;28;20244;-68
2022/07/31 06:03:39;;;;;;;4.97;4.67;;;19.90;99.90;;;;;;5009334;28;20198;-67
2022/07/31 06:06:08;;;;;;;10.23;5.57;;;20.10;99.90;;;;;;5009357;28;20613;-67
2022/07/31 06:08:35;;;;;;;5.83;5.10;;;19.90;99.90;;;;;;5008527;28;20216;-67
2022/07/31 06:11:09;;;;;;;5.50;5.00;;;19.70;99.90;;;;;;5009322;28;20218;-71
2022/07/31 06:13:37;;;;;;;5.10;4.80;;;19.60;99.90;;;;;;5009620;28;20205;-68
2022/07/31 06:16:12;;;;;;;5.37;5.07;;;19.60;99.90;;;;;;5009364;28;20216;-68
2022/07/31 06:18:39;;;;;;;5.03;4.63;;;19.60;99.90;;;;;;4989738;28;20217;-69
2022/07/31 06:21:09;;;;;;;5.17;4.80;;;19.60;99.90;;;;;;4989405;28;20243;-68
2022/07/31 06:23:36;;;;;;;5.30;4.90;;;19.80;99.90;;;;;;4997072;28;20698;-68
2022/07/31 06:26:10;;;;;;;5.63;5.00;;;19.80;99.90;;;;;;5007235;28;20204;-68
2022/07/31 06:28:39;;;;;;;5.23;4.77;;;19.80;99.90;;;;;;5006252;28;20225;-68
2022/07/31 06:31:16;;;;;;;4.60;4.30;;;19.80;99.90;;;;;;4989137;28;20680;-68
2022/07/31 06:33:43;;;;;;;5.43;4.93;;;19.90;99.90;;;;;;4989390;28;20220;-68
2022/07/31 06:36:10;;;;;;;4.90;4.60;;;20.00;99.90;;;;;;4988806;28;20214;-68
2022/07/31 06:38:37;;;;;;;6.27;4.50;;;20.10;99.90;;;;;;4988905;28;20228;-68
2022/07/31 06:41:10;;;;;;;4.97;4.60;;;20.10;99.90;;;;;;4988809;28;20238;-68
2022/07/31 06:43:36;;;;;;;6.53;4.13;;;20.20;99.90;;;;;;4999577;28;20734;-68
2022/07/31 06:46:13;;;;;;;5.10;4.00;;;20.30;99.90;;;;;;5008248;28;20965;-69
2022/07/31 06:48:40;;;;;;;5.20;4.80;;;20.40;99.90;;;;;;5008424;28;20193;-70
2022/07/31 06:51:09;;;;;;;4.43;4.10;;;20.40;99.90;;;;;;5007964;28;20209;-70
2022/07/31 06:53:36;;;;;;;5.22;4.53;;;20.50;99.90;;;;;;5007991;28;20220;-69
2022/07/31 06:56:09;;;;;;;4.85;4.55;;;20.60;99.90;;;;;;5007874;28;20206;-69
2022/07/31 06:58:36;;;;;;;5.10;4.35;;;20.60;99.90;;;;;;5007927;28;20193;-70
2022/07/31 07:01:12;;;;;;;4.87;4.47;;;20.60;99.90;;;;;;5007759;28;20237;-69
2022/07/31 07:03:39;;;;;;;6.20;4.60;;;20.60;99.90;;;;;;5008055;28;20259;-70
2022/07/31 07:06:09;;;;;;;4.85;4.50;;;20.60;99.90;;;;;;5007731;28;20219;-70
2022/07/31 07:08:36;;;;;;;4.60;4.20;;;20.60;99.90;;;;;;5008125;28;20205;-69
2022/07/31 07:11:10;;;;;;;5.07;4.37;;;20.60;99.90;;;;;;5007547;28;20960;-69
2022/07/31 07:13:36;;;;;;;4.37;3.77;;;20.80;99.90;;;;;;5008117;28;20208;-68
2022/07/31 07:16:12;;;;;;;6.05;4.00;;;20.90;99.90;;;;;;5007775;28;20668;-69
2022/07/31 07:18:39;;;;;;;5.28;4.78;;;21.00;99.90;;;;;;5008024;28;20653;-69
2022/07/31 07:21:09;;;;;;;4.25;3.85;;;21.10;99.90;;;;;;5007364;28;20256;-69
2022/07/31 07:23:36;;;;;;;4.72;4.25;;;21.20;99.90;;;;;;5007956;28;20445;-69
2022/07/31 07:26:10;;;;;;;7.35;4.63;;;21.30;99.90;;;;;;5007609;28;20206;-69
2022/07/31 07:28:37;;;;;;;4.90;4.27;;;21.30;99.90;;;;;;5007931;28;20193;-69
2022/07/31 07:31:13;;;;;;;5.03;3.70;;;21.40;99.90;;;;;;5007345;28;20213;-68
2022/07/31 07:33:39;;;;;;;4.20;3.90;;;21.50;99.90;;;;;;4988364;28;20204;-69
2022/07/31 07:36:09;;;;;;;4.38;3.85;;;21.50;99.90;;;;;;4987885;28;20687;-69
2022/07/31 07:38:36;;;;;;;4.47;4.28;;;21.50;99.90;;;;;;4988238;28;20224;-69
2022/07/31 07:41:10;;;;;;;4.65;3.85;;;21.50;99.90;;;;;;4989476;28;20693;-68
2022/07/31 07:43:37;;;;;;;3.78;3.42;;;21.50;99.90;;;;;;4997861;28;20225;-68
2022/07/31 07:46:11;;;;;;;4.53;4.10;;;21.50;99.90;;;;;;5008155;28;20217;-68
2022/07/31 07:48:38;;;;;;;3.87;3.60;;;21.40;99.90;;;;;;5007747;28;20207;-68
2022/07/31 07:51:11;;;;;;;5.90;3.55;;;21.50;99.90;;;;;;5007365;28;20210;-68
2022/07/31 07:53:39;;;;;;;4.13;3.72;;;21.50;99.90;;;;;;5002680;28;20210;-69
2022/07/31 07:56:09;;;;;;;5.23;3.43;;;21.60;99.90;;;;;;5000577;28;20245;-68
2022/07/31 07:58:35;;;;;;;4.53;3.60;;;21.70;99.90;;;;;;5007997;28;20260;-69
2022/07/31 08:01:10;;;;;;;4.47;3.20;;;21.80;99.90;;;;;;5007463;28;20703;-68
2022/07/31 08:03:38;;;;;;;4.03;3.72;;;21.90;99.90;;;;;;5007442;28;21024;-69
2022/07/31 08:06:10;;;;;;;6.40;4.00;;;22.00;99.90;;;;;;5007638;28;20206;-68
2022/07/31 08:08:37;;;;;;;3.95;3.30;;;22.10;99.90;;;;;;5007539;28;20212;-67
2022/07/31 08:11:10;;;;;;;3.35;3.03;;;22.20;99.90;;;;;;5007645;28;20209;-67
2022/07/31 08:13:37;;;;;;;3.63;3.10;;;22.30;99.90;;;;;;4991206;28;20289;-67
2022/07/31 08:16:09;;;;;;;3.75;3.45;;;22.50;99.90;;;;;;4987916;28;20653;-67
2022/07/31 08:18:35;;;;;;;4.50;4.20;;;22.60;99.90;;;;;;4987845;28;20644;-67
2022/07/31 08:21:10;;;;;;;6.50;5.32;;;22.70;99.90;;;;;;4987801;28;20324;-67
2022/07/31 08:23:36;;;;;;;4.65;3.22;;;22.70;99.90;;;;;;5003162;28;20201;-66
2022/07/31 08:26:09;;;;;;;3.55;3.25;;;22.80;99.90;;;;;;5004099;28;20205;-67
2022/07/31 08:28:36;;;;;;;4.57;2.72;;;22.80;99.90;;;;;;5006932;28;20198;-67
2022/07/31 08:31:11;;;;;;;4.65;2.97;;;22.90;99.90;;;;;;5007379;28;20206;-67
2022/07/31 08:33:38;;;;;;;3.03;2.83;;;23.00;99.90;;;;;;4990918;28;20206;-67
2022/07/31 08:36:11;;;;;;;3.40;3.20;;;23.10;99.90;;;;;;4989376;28;20305;-67
2022/07/31 08:38:39;;;;;;;3.28;3.05;;;23.20;99.90;;;;;;4988860;28;20228;-67
2022/07/31 08:41:13;;;;;;;4.88;3.08;;;23.30;99.90;;;;;;4989566;28;20241;-66
2022/07/31 08:43:40;;;;;;;3.35;2.90;;;23.40;99.90;;;;;;5008135;28;20221;-67
2022/07/31 08:46:13;;;;;;;3.17;2.97;;;23.40;99.90;;;;;;5008002;28;20665;-67
2022/07/31 08:48:41;;;;;;;3.20;3.00;;;23.50;99.90;;;;;;5008455;28;20212;-66
2022/07/31 08:51:13;;;;;;;3.35;3.05;;;23.50;99.90;;;;;;5008051;28;20210;-67
2022/07/31 08:53:43;;;;;;;3.20;3.00;;;23.60;99.90;;;;;;4997580;28;20214;-66
2022/07/31 08:56:11;;;;;;;4.57;2.35;;;23.60;99.90;;;;;;5008211;28;20636;-67
2022/07/31 08:58:38;;;;;;;2.85;2.55;;;23.60;99.90;;;;;;5008514;28;20197;-67
2022/07/31 09:01:13;;;;;;;2.55;2.28;;;23.70;99.90;;;;;;5007565;28;20738;-67
2022/07/31 09:03:40;;;;;;;4.28;2.13;;;23.80;99.90;;;;;;5008063;28;20935;-67
2022/07/31 09:06:11;;;;;;;4.07;2.80;;;23.80;99.90;;;;;;5008085;28;20220;-68
2022/07/31 09:08:38;;;;;;;4.50;2.88;;;23.90;99.90;;;;;;5008923;28;20288;-67
2022/07/31 09:11:13;;;;;;;3.17;2.88;;;24.00;99.90;;;;;;5008195;28;20213;-67
2022/07/31 09:13:41;;;;;;;6.78;2.65;;;24.00;99.90;;;;;;5008126;28;20212;-67
2022/07/31 09:16:10;;;;;;;3.38;3.08;;;24.10;99.90;;;;;;5007777;28;20581;-67
2022/07/31 09:18:37;;;;;;;3.05;2.83;;;24.20;99.90;;;;;;5007969;28;20215;-68
2022/07/31 09:21:13;;;;;;;3.70;2.97;;;24.30;99.90;;;;;;5007928;28;20233;-68
2022/07/31 09:23:46;;;;;;;4.18;3.17;;;24.30;99.90;;;;;;5007596;28;20301;-68
2022/07/31 09:26:13;;;;;;;3.97;3.60;;;24.30;99.90;;;;;;5007579;28;20206;-68
2022/07/31 09:28:41;;;;;;;3.97;3.08;;;24.40;99.90;;;;;;5006934;28;20660;-68
2022/07/31 09:31:12;;;;;;;3.22;2.92;;;24.40;99.90;;;;;;5007646;28;20209;-68
2022/07/31 09:33:42;;;;;;;3.40;3.10;;;24.50;99.90;;;;;;5007611;28;20285;-69
2022/07/31 09:36:14;;;;;;;5.43;3.47;;;24.60;99.90;;;;;;5007499;28;20205;-68
2022/07/31 09:38:43;;;;;;;3.50;3.25;;;24.60;99.60;;;;;;5007647;28;20210;-67
2022/07/31 09:41:11;;;;;;;4.00;3.40;;;24.60;99.50;;;;;;5007285;28;20645;-68
2022/07/31 09:43:38;;;;;;;4.45;3.15;;;24.60;99.40;;;;;;5006717;28;20217;-68
2022/07/31 09:46:11;;;;;;;8.02;3.53;;;24.70;99.50;;;;;;5007361;28;20209;-68
2022/07/31 09:48:37;;;;;;;4.97;2.75;;;24.80;99.60;;;;;;5007837;28;20680;-68
2022/07/31 09:51:14;;;;;;;5.93;4.65;;;24.80;99.30;;;;;;5005373;28;20213;-68
2022/07/31 09:53:42;;;;;;;4.30;3.20;;;24.90;99.60;;;;;;5007270;28;20209;-67
2022/07/31 09:56:14;;;;;;;3.25;3.03;;;25.00;99.40;;;;;;5006328;28;20239;-68
2022/07/31 09:58:42;;;;;;;3.90;3.20;;;25.10;99.20;;;;;;4988445;28;20198;-68
2022/07/31 10:01:12;;;;;;;3.10;2.90;;;25.10;99.00;;;;;;4987733;28;20236;-68
2022/07/31 10:03:40;;;;;;;3.75;2.92;;;25.20;98.50;;;;;;4987734;28;20218;-67
2022/07/31 10:06:15;;;;;;;5.60;2.85;;;25.20;98.60;;;;;;4987712;28;20645;-67
2022/07/31 10:08:45;;;;;;;3.10;2.78;;;25.30;98.20;;;;;;4988433;28;20255;-67
2022/07/31 10:11:13;;;;;;;5.35;2.88;;;25.30;98.50;;;;;;5007012;28;20205;-67
2022/07/31 10:13:45;;;;;;;3.47;3.00;;;25.30;98.50;;;;;;5006150;28;20209;-67
2022/07/31 10:16:13;;;;;;;6.88;3.15;;;25.40;98.40;;;;;;5006603;28;20192;-67
2022/07/31 10:18:45;;;;;;;3.08;2.63;;;25.40;98.20;;;;;;5006243;28;20618;-66
2022/07/31 10:21:16;;;;;;;3.33;3.03;;;25.40;97.80;;;;;;5006388;28;20233;-66
2022/07/31 10:23:44;;;;;;;3.42;3.13;;;25.50;97.80;;;;;;5006527;28;20213;-67
2022/07/31 10:26:12;;;;;;;3.53;2.67;;;25.60;97.80;;;;;;5006669;28;20301;-67
2022/07/31 10:28:41;;;;;;;4.00;3.25;;;25.60;97.50;;;;;;5007147;28;20216;-67
2022/07/31 10:31:12;;;;;;;8.20;3.00;;;25.60;97.50;;;;;;5006710;28;20706;-67
2022/07/31 10:33:41;;;;;;;3.40;3.10;;;25.70;97.70;;;;;;5005747;28;20223;-66
2022/07/31 10:36:21;;;;;;;5.63;3.05;;;25.70;97.80;;;;;;4987118;28;21001;-67
2022/07/31 10:38:58;;;;;;;4.00;2.97;;;25.80;97.50;;;;;;4987226;28;20202;-66
2022/07/31 10:41:36;;;;;;;6.95;2.88;;;25.80;97.30;;;;;;4986415;28;20527;-67
2022/07/31 10:44:08;;;;;;;2.83;2.72;;;25.90;97.00;;;;;;4986888;28;20202;-66
2022/07/31 10:46:34;;;;;;;3.22;2.85;;;26.00;96.80;;;;;;4999142;28;20685;-66
2022/07/31 10:49:01;;;;;;;2.85;2.65;;;26.00;96.40;;;;;;5006848;28;20212;-67
2022/07/31 10:51:30;;;;;;;5.13;2.63;;;26.10;96.00;;;;;;5006122;28;20222;-66
2022/07/31 10:53:59;;;;;;;5.05;2.95;;;26.10;96.00;;;;;;5006154;28;20569;-67
2022/07/31 10:56:26;;;;;;;4.88;3.28;;;26.10;95.60;;;;;;5005751;28;20237;-67
2022/07/31 10:58:54;;;;;;;3.53;2.92;;;26.20;95.70;;;;;;5005857;28;20672;-67
2022/07/31 11:01:21;;;;;;;2.80;2.60;;;26.30;95.60;;;;;;5005542;28;20663;-67
2022/07/31 11:03:52;;;;;;;4.30;2.80;;;26.40;95.30;;;;;;5005983;28;20213;-67
2022/07/31 11:06:20;;;;;;;4.55;3.10;;;26.40;95.10;;;;;;5006458;28;20284;-67
2022/07/31 11:08:50;;;;;;;3.80;3.00;;;26.40;95.20;;;;;;5006138;28;20209;-67
2022/07/31 11:11:18;;;;;;;4.43;3.20;;;26.40;95.80;;;;;;5005919;28;20233;-67
2022/07/31 11:13:46;;;;;;;6.45;3.28;;;26.50;95.80;;;;;;5005745;28;20695;-67
2022/07/31 11:16:13;;;;;;;3.88;3.10;;;26.50;95.40;;;;;;5006107;28;20569;-67
2022/07/31 11:18:40;;;;;;;3.13;2.80;;;26.40;95.20;;;;;;5005974;28;20213;-67
2022/07/31 11:21:13;;;;;;;4.93;3.17;;;26.40;95.40;;;;;;5004808;28;20811;-68
2022/07/31 11:23:40;;;;;;;6.50;3.20;;;26.50;95.70;;;;;;5005617;28;20224;-67
2022/07/31 11:26:17;;;;;;;2.90;2.58;;;26.60;95.70;;;;;;5005222;28;20209;-67
2022/07/31 11:28:44;;;;;;;5.10;3.22;;;26.60;95.00;;;;;;5005373;28;20656;-67
2022/07/31 11:31:14;;;;;;;3.55;3.13;;;26.70;95.00;;;;;;5005579;28;20260;-67
2022/07/31 11:33:42;;;;;;;5.05;2.78;;;26.90;94.90;;;;;;5005307;28;20212;-67
2022/07/31 11:36:14;;;;;;;3.40;3.20;;;26.90;94.90;;;;;;5005246;28;20586;-67
2022/07/31 11:38:43;;;;;;;3.03;2.80;;;26.90;94.90;;;;;;5005807;28;20209;-67
2022/07/31 11:41:14;;;;;;;3.88;3.50;;;26.80;95.00;;;;;;5005450;28;20233;-67
2022/07/31 11:43:44;;;;;;;4.47;2.90;;;26.70;95.00;;;;;;5006127;28;20213;-67
2022/07/31 11:46:18;;;;;;;3.65;2.90;;;26.60;94.90;;;;;;5006102;28;20711;-67
2022/07/31 11:48:45;;;;;;;3.88;3.47;;;26.50;95.20;;;;;;4996599;28;20208;-67
2022/07/31 11:51:18;;;;;;;3.05;2.80;;;26.40;95.40;;;;;;4985242;28;20711;-67
2022/07/31 11:53:45;;;;;;;3.83;3.33;;;26.30;95.60;;;;;;4994863;28;20296;-67
2022/07/31 11:56:18;;;;;;;4.32;3.20;;;26.20;95.70;;;;;;5005006;28;20245;-67
2022/07/31 11:58:48;;;;;;;3.47;3.17;;;26.20;95.70;;;;;;5005438;28;20296;-67
2022/07/31 12:01:15;;;;;;;3.38;2.72;;;26.10;95.70;;;;;;5005182;28;20607;-68
2022/07/31 12:03:43;;;;;;;5.90;3.38;;;26.10;95.80;;;;;;5005416;28;20657;-67
2022/07/31 12:06:19;;;;;;;5.15;3.42;;;26.10;96.20;;;;;;5005839;28;20217;-68
2022/07/31 12:08:46;;;;;;;3.35;3.13;;;26.10;96.40;;;;;;5009600;28;20197;-68
2022/07/31 12:11:15;;;;;;;2.80;2.60;;;26.10;96.10;;;;;;5009325;28;20217;-68
2022/07/31 12:13:46;;;;;;;2.78;2.60;;;26.10;96.00;;;;;;5009309;28;20231;-67
2022/07/31 12:16:13;;;;;;;3.78;3.00;;;26.10;96.10;;;;;;5003949;28;20650;-68
2022/07/31 12:18:47;;;;;;;3.95;3.22;;;26.10;96.30;;;;;;4989798;28;20210;-68
2022/07/31 12:21:15;;;;;;;3.20;2.83;;;26.10;96.10;;;;;;4989446;28;20228;-67
2022/07/31 12:23:43;;;;;;;3.35;2.80;;;26.10;96.20;;;;;;4998017;28;20224;-68
2022/07/31 12:26:21;;;;;;;4.15;2.60;;;26.10;96.30;;;;;;5009243;28;20216;-67
2022/07/31 12:28:58;;;;;;;3.08;2.72;;;26.10;96.20;;;;;;5009859;28;20203;-67
2022/07/31 12:31:25;;;;;;;5.88;2.67;;;26.10;95.70;;;;;;5009020;28;20201;-67
2022/07/31 12:33:52;;;;;;;6.03;3.00;;;26.10;95.70;;;;;;5009057;28;20209;-67
2022/07/31 12:36:19;;;;;;;3.20;2.10;;;26.00;95.40;;;;;;5008482;28;20225;-68
2022/07/31 12:38:46;;;;;;;2.78;2.20;;;26.00;95.30;;;;;;5008547;28;20209;-68
2022/07/31 12:41:13;;;;;;;4.30;2.88;;;26.00;95.20;;;;;;5007947;28;20237;-67
2022/07/31 12:43:40;;;;;;;2.78;2.58;;;26.00;95.20;;;;;;5007527;28;20215;-67
2022/07/31 12:46:14;;;;;;;3.75;2.28;;;26.10;95.00;;;;;;5007932;28;20680;-68
2022/07/31 12:48:41;;;;;;;3.92;2.90;;;26.10;94.70;;;;;;5008152;28;20718;-67
2022/07/31 12:51:15;;;;;;;4.07;2.70;;;26.20;94.90;;;;;;5008405;28;20210;-68
2022/07/31 12:53:42;;;;;;;5.10;2.45;;;26.30;94.80;;;;;;5008856;28;20317;-68
2022/07/31 12:56:15;;;;;;;2.22;2.08;;;26.40;94.90;;;;;;5008118;28;20237;-68